sensor_id;sensor_type;location;lat;lon;timestamp;temperature;humidity
7796;DHT22;3942;51.518;6.912;2023-05-07T00:00:59;16.20;99.90
7796;DHT22;3942;51.518;6.912;2023-05-07T00:06:01;16.20;99.90
7796;DHT22;3942;51.518;6.912;2023-05-07T00:11:03;16.10;99.90
7796;DHT22;3942;51.518;6.912;2023-05-07T00:56:28;15.90;99.90
7796;DHT22;3942;51.518;6.912;2023-05-07T01:06:34;16.10;99.90
7796;DHT22;3942;51.518;6.912;2023-05-07T01:26:48;15.80;99.90
7796;DHT22;3942;51.518;6.912;2023-05-07T01:47:00;15.60;99.90
7796;DHT22;3942;51.518;6.912;2023-05-07T02:07:11;15.40;99.90
7796;DHT22;3942;51.518;6.912;2023-05-07T02:12:14;15.50;99.90
7796;DHT22;3942;51.518;6.912;2023-05-07T02:37:26;15.30;99.90
7796;DHT22;3942;51.518;6.912;2023-05-07T02:42:29;15.50;99.90
7796;DHT22;3942;51.518;6.912;2023-05-07T02:47:31;15.50;99.90
7796;DHT22;3942;51.518;6.912;2023-05-07T03:07:40;15.40;99.90
7796;DHT22;3942;51.518;6.912;2023-05-07T03:17:49;15.20;99.90
7796;DHT22;3942;51.518;6.912;2023-05-07T03:43:02;15.30;99.90
7796;DHT22;3942;51.518;6.912;2023-05-07T03:48:04;15.50;99.90
7796;DHT22;3942;51.518;6.912;2023-05-07T03:53:06;15.30;99.90
7796;DHT22;3942;51.518;6.912;2023-05-07T04:03:11;15.10;99.90
7796;DHT22;3942;51.518;6.912;2023-05-07T04:08:13;15.50;99.90
7796;DHT22;3942;51.518;6.912;2023-05-07T04:13:16;15.20;99.90
7796;DHT22;3942;51.518;6.912;2023-05-07T04:43:32;15.10;99.90
7796;DHT22;3942;51.518;6.912;2023-05-07T04:53:37;15.20;99.90
7796;DHT22;3942;51.518;6.912;2023-05-07T05:18:50;15.10;99.90
7796;DHT22;3942;51.518;6.912;2023-05-07T05:28:56;15.40;99.90
7796;DHT22;3942;51.518;6.912;2023-05-07T05:39:00;16.10;99.90
7796;DHT22;3942;51.518;6.912;2023-05-07T06:14:18;16.50;99.90
7796;DHT22;3942;51.518;6.912;2023-05-07T06:24:24;16.90;99.90
7796;DHT22;3942;51.518;6.912;2023-05-07T06:49:39;17.00;99.90
7796;DHT22;3942;51.518;6.912;2023-05-07T06:59:45;17.10;99.90
7796;DHT22;3942;51.518;6.912;2023-05-07T07:04:46;17.30;99.90
7796;DHT22;3942;51.518;6.912;2023-05-07T07:09:49;17.20;99.90
7796;DHT22;3942;51.518;6.912;2023-05-07T07:14:53;17.10;99.90
7796;DHT22;3942;51.518;6.912;2023-05-07T07:19:55;17.50;99.90
7796;DHT22;3942;51.518;6.912;2023-05-07T07:24:57;17.60;99.90
7796;DHT22;3942;51.518;6.912;2023-05-07T07:30:00;17.60;99.90
7796;DHT22;3942;51.518;6.912;2023-05-07T07:35:02;17.70;99.90
7796;DHT22;3942;51.518;6.912;2023-05-07T07:40:04;17.90;12.50
7796;DHT22;3942;51.518;6.912;2023-05-07T07:45:08;18.40;99.90
7796;DHT22;3942;51.518;6.912;2023-05-07T07:50:10;18.20;1.00
7796;DHT22;3942;51.518;6.912;2023-05-07T07:55:12;18.20;1.00
7796;DHT22;3942;51.518;6.912;2023-05-07T08:00:20;18.10;1.00
7796;DHT22;3942;51.518;6.912;2023-05-07T08:05:22;18.20;1.00
7796;DHT22;3942;51.518;6.912;2023-05-07T08:15:28;19.40;1.00
7796;DHT22;3942;51.518;6.912;2023-05-07T08:20:30;19.10;99.90
7796;DHT22;3942;51.518;6.912;2023-05-07T08:25:32;18.90;1.00
7796;DHT22;3942;51.518;6.912;2023-05-07T08:30:36;18.50;1.00
7796;DHT22;3942;51.518;6.912;2023-05-07T08:35:37;18.10;1.00
7796;DHT22;3942;51.518;6.912;2023-05-07T08:40:40;18.40;1.00
7796;DHT22;3942;51.518;6.912;2023-05-07T08:45:45;18.10;99.90
7796;DHT22;3942;51.518;6.912;2023-05-07T08:50:47;18.20;99.90
7796;DHT22;3942;51.518;6.912;2023-05-07T09:00:53;19.10;99.90
7796;DHT22;3942;51.518;6.912;2023-05-07T09:05:55;19.60;98.80
7796;DHT22;3942;51.518;6.912;2023-05-07T09:16:10;20.50;1.00
7796;DHT22;3942;51.518;6.912;2023-05-07T09:21:15;20.40;95.10
7796;DHT22;3942;51.518;6.912;2023-05-07T09:31:22;20.00;99.90
7796;DHT22;3942;51.518;6.912;2023-05-07T09:36:27;20.20;1.00
7796;DHT22;3942;51.518;6.912;2023-05-07T09:41:30;20.40;99.90
7796;DHT22;3942;51.518;6.912;2023-05-07T09:46:35;20.40;1.00
7796;DHT22;3942;51.518;6.912;2023-05-07T09:51:41;20.70;51.50
7796;DHT22;3942;51.518;6.912;2023-05-07T09:56:45;20.40;1.00
7796;DHT22;3942;51.518;6.912;2023-05-07T10:01:49;20.40;1.00
7796;DHT22;3942;51.518;6.912;2023-05-07T10:06:53;20.60;1.00
7796;DHT22;3942;51.518;6.912;2023-05-07T10:11:56;20.00;1.00
7796;DHT22;3942;51.518;6.912;2023-05-07T10:17:00;20.50;99.90
7796;DHT22;3942;51.518;6.912;2023-05-07T10:22:05;20.90;99.90
7796;DHT22;3942;51.518;6.912;2023-05-07T10:27:09;20.70;1.00
7796;DHT22;3942;51.518;6.912;2023-05-07T10:32:34;20.70;1.00
7796;DHT22;3942;51.518;6.912;2023-05-07T10:37:37;21.00;1.00
7796;DHT22;3942;51.518;6.912;2023-05-07T10:42:53;20.90;1.00
7796;DHT22;3942;51.518;6.912;2023-05-07T10:48:13;21.30;99.90
7796;DHT22;3942;51.518;6.912;2023-05-07T10:53:24;21.20;30.00
7796;DHT22;3942;51.518;6.912;2023-05-07T10:58:30;21.30;81.50
7796;DHT22;3942;51.518;6.912;2023-05-07T11:03:35;21.30;12.00
7796;DHT22;3942;51.518;6.912;2023-05-07T11:08:55;21.00;1.00
7796;DHT22;3942;51.518;6.912;2023-05-07T11:13:57;21.40;1.00
7796;DHT22;3942;51.518;6.912;2023-05-07T11:19:00;21.50;1.00
7796;DHT22;3942;51.518;6.912;2023-05-07T11:24:03;21.30;1.00
7796;DHT22;3942;51.518;6.912;2023-05-07T11:29:10;21.40;1.00
7796;DHT22;3942;51.518;6.912;2023-05-07T11:34:14;21.30;1.00
7796;DHT22;3942;51.518;6.912;2023-05-07T11:39:27;21.40;99.90
7796;DHT22;3942;51.518;6.912;2023-05-07T11:44:42;21.50;99.90
7796;DHT22;3942;51.518;6.912;2023-05-07T11:49:46;21.60;99.90
7796;DHT22;3942;51.518;6.912;2023-05-07T11:54:52;21.60;99.90
7796;DHT22;3942;51.518;6.912;2023-05-07T11:59:54;21.70;99.90
7796;DHT22;3942;51.518;6.912;2023-05-07T12:04:57;21.80;99.90
7796;DHT22;3942;51.518;6.912;2023-05-07T12:10:04;21.90;99.90
7796;DHT22;3942;51.518;6.912;2023-05-07T12:15:07;21.60;99.90
7796;DHT22;3942;51.518;6.912;2023-05-07T12:20:12;21.70;99.90
7796;DHT22;3942;51.518;6.912;2023-05-07T12:25:18;21.80;99.90
7796;DHT22;3942;51.518;6.912;2023-05-07T12:30:20;21.60;99.90
7796;DHT22;3942;51.518;6.912;2023-05-07T12:35:31;21.50;99.90
7796;DHT22;3942;51.518;6.912;2023-05-07T12:40:37;21.50;99.90
7796;DHT22;3942;51.518;6.912;2023-05-07T12:45:40;21.50;99.90
7796;DHT22;3942;51.518;6.912;2023-05-07T12:50:44;21.30;99.90
7796;DHT22;3942;51.518;6.912;2023-05-07T12:55:47;21.30;99.90
7796;DHT22;3942;51.518;6.912;2023-05-07T13:00:50;21.20;99.90
7796;DHT22;3942;51.518;6.912;2023-05-07T13:05:54;21.00;99.90
7796;DHT22;3942;51.518;6.912;2023-05-07T13:10:58;21.10;99.90
7796;DHT22;3942;51.518;6.912;2023-05-07T13:21:04;20.80;99.90
7796;DHT22;3942;51.518;6.912;2023-05-07T13:26:06;20.90;99.90
7796;DHT22;3942;51.518;6.912;2023-05-07T13:31:08;21.00;99.90
7796;DHT22;3942;51.518;6.912;2023-05-07T13:36:11;20.80;99.90
7796;DHT22;3942;51.518;6.912;2023-05-07T13:41:13;20.80;99.90
7796;DHT22;3942;51.518;6.912;2023-05-07T13:51:18;20.00;1.00
7796;DHT22;3942;51.518;6.912;2023-05-07T13:56:21;19.40;99.90
7796;DHT22;3942;51.518;6.912;2023-05-07T14:06:27;18.90;99.90
7796;DHT22;3942;51.518;6.912;2023-05-07T14:16:31;18.60;1.00
7796;DHT22;3942;51.518;6.912;2023-05-07T14:21:39;18.60;15.20
7796;DHT22;3942;51.518;6.912;2023-05-07T14:31:43;18.50;1.00
7796;DHT22;3942;51.518;6.912;2023-05-07T14:36:46;18.50;99.90
7796;DHT22;3942;51.518;6.912;2023-05-07T14:41:48;18.50;1.00
7796;DHT22;3942;51.518;6.912;2023-05-07T14:46:50;19.10;99.90
7796;DHT22;3942;51.518;6.912;2023-05-07T15:01:58;19.10;1.00
7796;DHT22;3942;51.518;6.912;2023-05-07T15:07:01;19.10;93.00
7796;DHT22;3942;51.518;6.912;2023-05-07T15:27:11;19.40;99.90
7796;DHT22;3942;51.518;6.912;2023-05-07T15:32:13;19.30;99.90
7796;DHT22;3942;51.518;6.912;2023-05-07T15:37:16;19.40;99.90
7796;DHT22;3942;51.518;6.912;2023-05-07T15:42:18;19.50;13.20
7796;DHT22;3942;51.518;6.912;2023-05-07T15:47:21;19.70;1.00
7796;DHT22;3942;51.518;6.912;2023-05-07T15:52:24;19.40;1.00
7796;DHT22;3942;51.518;6.912;2023-05-07T15:57:27;19.50;99.90
7796;DHT22;3942;51.518;6.912;2023-05-07T16:02:29;19.40;1.00
7796;DHT22;3942;51.518;6.912;2023-05-07T16:07:32;19.50;99.90
7796;DHT22;3942;51.518;6.912;2023-05-07T16:17:36;19.50;99.90
7796;DHT22;3942;51.518;6.912;2023-05-07T16:22:39;19.50;99.90
7796;DHT22;3942;51.518;6.912;2023-05-07T16:27:41;19.50;1.00
7796;DHT22;3942;51.518;6.912;2023-05-07T16:32:43;19.20;99.90
7796;DHT22;3942;51.518;6.912;2023-05-07T16:37:46;19.10;1.00
7796;DHT22;3942;51.518;6.912;2023-05-07T16:42:48;19.10;86.80
7796;DHT22;3942;51.518;6.912;2023-05-07T16:47:50;19.30;1.00
7796;DHT22;3942;51.518;6.912;2023-05-07T16:52:53;19.30;1.00
7796;DHT22;3942;51.518;6.912;2023-05-07T17:13:03;19.70;1.00
7796;DHT22;3942;51.518;6.912;2023-05-07T17:18:05;19.70;1.00
7796;DHT22;3942;51.518;6.912;2023-05-07T17:23:08;19.70;1.00
7796;DHT22;3942;51.518;6.912;2023-05-07T17:38:15;19.40;99.90
7796;DHT22;3942;51.518;6.912;2023-05-07T17:43:17;19.50;99.90
7796;DHT22;3942;51.518;6.912;2023-05-07T17:48:19;19.80;1.00
7796;DHT22;3942;51.518;6.912;2023-05-07T17:53:22;19.80;99.90
7796;DHT22;3942;51.518;6.912;2023-05-07T17:58:24;19.70;1.00
7796;DHT22;3942;51.518;6.912;2023-05-07T18:08:33;19.70;99.90
7796;DHT22;3942;51.518;6.912;2023-05-07T18:23:40;19.60;1.00
7796;DHT22;3942;51.518;6.912;2023-05-07T18:53:57;19.20;14.40
7796;DHT22;3942;51.518;6.912;2023-05-07T18:59:01;19.20;99.90
7796;DHT22;3942;51.518;6.912;2023-05-07T19:04:03;19.00;99.90
7796;DHT22;3942;51.518;6.912;2023-05-07T19:09:07;18.70;99.90
7796;DHT22;3942;51.518;6.912;2023-05-07T19:19:11;18.70;1.00
7796;DHT22;3942;51.518;6.912;2023-05-07T19:24:15;18.70;1.00
7796;DHT22;3942;51.518;6.912;2023-05-07T19:39:22;18.50;99.90
7796;DHT22;3942;51.518;6.912;2023-05-07T19:44:24;18.40;99.90
7796;DHT22;3942;51.518;6.912;2023-05-07T19:49:26;18.50;99.90
7796;DHT22;3942;51.518;6.912;2023-05-07T19:54:29;18.40;99.90
7796;DHT22;3942;51.518;6.912;2023-05-07T20:04:33;18.50;99.90
7796;DHT22;3942;51.518;6.912;2023-05-07T20:09:38;18.20;99.90
7796;DHT22;3942;51.518;6.912;2023-05-07T20:14:40;18.20;99.90
7796;DHT22;3942;51.518;6.912;2023-05-07T20:24:46;18.00;99.90
7796;DHT22;3942;51.518;6.912;2023-05-07T20:34:49;18.00;99.90
7796;DHT22;3942;51.518;6.912;2023-05-07T20:39:53;18.10;99.90
7796;DHT22;3942;51.518;6.912;2023-05-07T20:44:54;18.00;99.90
7796;DHT22;3942;51.518;6.912;2023-05-07T20:49:56;18.00;99.90
7796;DHT22;3942;51.518;6.912;2023-05-07T20:54:59;17.90;99.90
7796;DHT22;3942;51.518;6.912;2023-05-07T21:00:01;17.90;99.90
7796;DHT22;3942;51.518;6.912;2023-05-07T21:10:08;17.40;99.90
7796;DHT22;3942;51.518;6.912;2023-05-07T21:25:16;17.20;99.90
7796;DHT22;3942;51.518;6.912;2023-05-07T21:40:24;17.10;99.90
7796;DHT22;3942;51.518;6.912;2023-05-07T21:45:26;17.10;99.90
7796;DHT22;3942;51.518;6.912;2023-05-07T21:55:31;16.90;99.90
7796;DHT22;3942;51.518;6.912;2023-05-07T22:10:38;16.60;99.90
7796;DHT22;3942;51.518;6.912;2023-05-07T22:20:42;16.50;99.90
7796;DHT22;3942;51.518;6.912;2023-05-07T22:25:46;16.50;99.90
7796;DHT22;3942;51.518;6.912;2023-05-07T22:40:55;16.50;67.80
7796;DHT22;3942;51.518;6.912;2023-05-07T23:11:16;16.30;1.00
7796;DHT22;3942;51.518;6.912;2023-05-07T23:16:18;16.40;1.00
7796;DHT22;3942;51.518;6.912;2023-05-07T23:26:25;16.30;1.00
7796;DHT22;3942;51.518;6.912;2023-05-07T23:46:35;15.90;1.00
7796;DHT22;3942;51.518;6.912;2023-05-07T23:51:37;16.10;1.00
